createdAt,value
2023-01-13T00:00:50.813Z,6.20
2023-01-13T00:03:17.656Z,8.10
2023-01-13T00:05:44.454Z,5.70
2023-01-13T00:08:11.370Z,5.40
2023-01-13T00:10:38.272Z,5.90
2023-01-13T00:13:06.001Z,6.10
2023-01-13T00:15:33.424Z,7.10
2023-01-13T00:18:00.293Z,4.70
2023-01-13T00:20:27.113Z,6.60
2023-01-13T00:22:55.456Z,5.10
2023-01-13T00:25:22.683Z,5.90
2023-01-13T00:27:49.495Z,6.60
2023-01-13T00:30:16.594Z,5.50
2023-01-13T00:32:43.451Z,4.90
2023-01-13T00:35:10.401Z,5.70
2023-01-13T00:37:38.611Z,5.90
2023-01-13T00:40:06.300Z,6.70
2023-01-13T00:42:48.663Z,4.80
2023-01-13T00:45:15.871Z,8.80
2023-01-13T00:47:42.701Z,4.70
2023-01-13T00:50:10.469Z,6.80
2023-01-13T00:52:37.275Z,4.10
2023-01-13T00:55:04.508Z,10.00
2023-01-13T00:57:31.299Z,7.10
2023-01-13T00:59:58.062Z,5.90
2023-01-13T01:02:24.919Z,4.50
2023-01-13T01:04:51.875Z,4.90
2023-01-13T01:07:18.635Z,4.50
2023-01-13T01:09:45.398Z,5.10
2023-01-13T01:12:12.173Z,5.60
2023-01-13T01:14:39.005Z,7.00
2023-01-13T01:17:06.088Z,4.40
2023-01-13T01:19:32.992Z,5.10
2023-01-13T01:21:59.875Z,4.80
2023-01-13T01:24:26.655Z,5.70
2023-01-13T01:26:54.073Z,5.50
2023-01-13T01:29:20.968Z,4.80
2023-01-13T01:31:47.782Z,6.10
2023-01-13T01:34:14.601Z,4.20
2023-01-13T01:36:41.411Z,3.90
2023-01-13T01:39:08.295Z,5.00
2023-01-13T01:41:36.726Z,6.90
2023-01-13T01:44:34.099Z,5.10
2023-01-13T01:47:01.049Z,7.30
2023-01-13T01:49:34.821Z,4.40
2023-01-13T01:52:11.712Z,6.20
2023-01-13T01:54:43.778Z,5.20
2023-01-13T01:57:16.683Z,5.20
2023-01-13T01:59:44.369Z,6.00
2023-01-13T02:02:11.962Z,7.10
2023-01-13T02:04:43.057Z,6.60
2023-01-13T02:07:09.885Z,5.30
2023-01-13T02:09:36.849Z,5.20
2023-01-13T02:12:19.379Z,4.90
2023-01-13T02:14:46.948Z,6.00
2023-01-13T02:17:40.903Z,8.50
2023-01-13T02:20:24.618Z,5.20
2023-01-13T02:23:37.440Z,10.00
2023-01-13T02:26:25.225Z,4.80
2023-01-13T02:29:25.964Z,7.50
2023-01-13T02:31:59.350Z,4.30
2023-01-13T02:34:30.664Z,6.90
2023-01-13T02:37:06.931Z,8.50
2023-01-13T02:39:42.327Z,5.90
2023-01-13T02:42:30.324Z,6.50
2023-01-13T02:45:06.040Z,7.10
2023-01-13T02:47:36.954Z,8.50
2023-01-13T02:50:08.998Z,7.70
2023-01-13T02:52:43.840Z,7.60
2023-01-13T02:55:18.030Z,7.30
2023-01-13T03:00:14.019Z,8.10
2023-01-13T03:02:40.767Z,7.40
2023-01-13T03:05:08.149Z,11.30
2023-01-13T03:07:57.677Z,6.00
2023-01-13T03:10:27.926Z,5.50
2023-01-13T03:13:25.377Z,5.70
2023-01-13T03:16:14.892Z,6.20
2023-01-13T03:18:47.154Z,10.00
2023-01-13T03:21:18.718Z,8.00
2023-01-13T03:23:50.842Z,3.90
2023-01-13T03:26:28.662Z,4.70
2023-01-13T03:29:08.117Z,7.30
2023-01-13T03:31:41.521Z,6.00
2023-01-13T03:34:16.120Z,5.80
2023-01-13T03:36:46.294Z,4.50
2023-01-13T03:39:20.355Z,5.90
2023-01-13T03:41:57.314Z,4.30
2023-01-13T03:44:32.926Z,5.30
2023-01-13T03:47:16.118Z,5.30
2023-01-13T03:49:51.934Z,4.90
2023-01-13T03:52:25.178Z,4.50
2023-01-13T03:54:59.684Z,6.30
2023-01-13T03:57:31.560Z,4.90
2023-01-13T04:00:02.254Z,4.90
2023-01-13T04:02:54.445Z,3.80
2023-01-13T04:05:21.944Z,2.70
2023-01-13T04:08:02.420Z,5.70
2023-01-13T04:10:38.599Z,5.80
2023-01-13T04:13:10.864Z,4.90
2023-01-13T04:15:40.778Z,7.30
2023-01-13T04:18:10.973Z,8.30
2023-01-13T04:20:38.484Z,9.60
2023-01-13T04:23:06.100Z,9.30
2023-01-13T04:25:33.821Z,7.80
2023-01-13T04:28:00.768Z,7.50
2023-01-13T04:30:27.568Z,9.40
2023-01-13T04:32:54.281Z,7.90
2023-01-13T04:35:21.029Z,8.80
2023-01-13T04:37:47.765Z,7.90
2023-01-13T04:40:14.810Z,9.70
2023-01-13T04:42:44.491Z,7.40
2023-01-13T04:45:12.139Z,6.10
2023-01-13T04:47:39.224Z,5.50
2023-01-13T04:50:06.172Z,6.90
2023-01-13T04:52:32.890Z,5.50
2023-01-13T04:54:59.742Z,5.50
2023-01-13T04:57:26.895Z,7.60
2023-01-13T04:59:53.582Z,5.80
2023-01-13T05:02:20.513Z,6.80
2023-01-13T05:04:48.156Z,5.30
2023-01-13T05:07:16.060Z,7.70
2023-01-13T05:09:42.821Z,5.70
2023-01-13T05:12:25.623Z,5.10
2023-01-13T05:15:08.066Z,6.70
2023-01-13T05:17:35.987Z,3.30
2023-01-13T05:20:02.941Z,2.50
2023-01-13T05:22:45.297Z,4.50
2023-01-13T05:25:27.955Z,6.10
2023-01-13T05:27:57.111Z,5.50
2023-01-13T05:30:27.939Z,6.00
2023-01-13T05:32:54.788Z,5.90
2023-01-13T05:35:21.636Z,4.70
2023-01-13T05:37:48.559Z,5.50
2023-01-13T05:40:33.689Z,5.70
2023-01-13T05:43:20.088Z,5.80
2023-01-13T05:46:03.151Z,5.50
2023-01-13T05:48:34.007Z,4.60
2023-01-13T05:51:02.274Z,5.80
2023-01-13T05:53:29.528Z,6.40
2023-01-13T05:55:56.668Z,5.80
2023-01-13T05:58:26.303Z,5.90
2023-01-13T06:00:53.367Z,4.60
2023-01-13T06:03:20.563Z,7.20
2023-01-13T06:05:48.243Z,5.70
2023-01-13T06:08:15.416Z,6.00
2023-01-13T06:10:42.159Z,5.50
2023-01-13T06:13:08.937Z,6.30
2023-01-13T06:15:36.013Z,6.20
2023-01-13T06:18:04.773Z,5.90
2023-01-13T06:20:32.126Z,4.90
2023-01-13T06:22:59.837Z,5.40
2023-01-13T06:25:57.266Z,5.90
2023-01-13T06:28:24.250Z,6.40
2023-01-13T06:30:55.319Z,6.00
2023-01-13T06:33:29.117Z,6.90
2023-01-13T06:36:01.649Z,6.80
2023-01-13T06:38:30.157Z,6.70
2023-01-13T06:40:57.102Z,10.20
2023-01-13T06:43:23.942Z,4.60
2023-01-13T06:45:54.475Z,8.10
2023-01-13T06:48:25.542Z,4.70
2023-01-13T06:50:52.319Z,5.60
2023-01-13T06:53:19.873Z,5.50
2023-01-13T06:55:46.960Z,6.30
2023-01-13T06:58:13.851Z,7.60
2023-01-13T07:00:40.768Z,8.60
2023-01-13T07:03:08.578Z,5.80
2023-01-13T07:05:35.286Z,5.70
2023-01-13T07:08:02.343Z,6.40
2023-01-13T07:10:30.311Z,6.30
2023-01-13T07:13:16.032Z,6.00
2023-01-13T07:15:42.747Z,7.10
2023-01-13T07:18:09.518Z,5.90
2023-01-13T07:20:36.235Z,6.10
2023-01-13T07:23:03.118Z,8.10
2023-01-13T07:25:30.014Z,6.60
2023-01-13T07:27:57.530Z,7.10
2023-01-13T07:30:24.241Z,6.30
2023-01-13T07:32:50.955Z,5.80
2023-01-13T07:35:21.818Z,6.70
2023-01-13T07:37:48.738Z,7.60
2023-01-13T07:40:16.996Z,6.60
2023-01-13T07:42:59.143Z,8.90
2023-01-13T07:45:29.175Z,5.20
2023-01-13T07:47:56.041Z,6.40
2023-01-13T07:50:23.975Z,9.60
2023-01-13T07:52:51.135Z,10.70
2023-01-13T07:55:17.963Z,8.10
2023-01-13T07:57:44.765Z,5.70
2023-01-13T08:00:13.029Z,7.10
2023-01-13T08:02:40.622Z,8.00
2023-01-13T08:05:08.112Z,8.60
2023-01-13T08:07:35.730Z,8.10
2023-01-13T08:10:04.093Z,6.90
2023-01-13T08:12:56.876Z,8.90
2023-01-13T08:15:24.100Z,7.80
2023-01-13T08:17:50.868Z,7.30
2023-01-13T08:20:17.793Z,10.70
2023-01-13T08:22:44.583Z,8.80
2023-01-13T08:25:11.334Z,6.20
2023-01-13T08:27:38.321Z,7.00
2023-01-13T08:30:05.928Z,6.80
2023-01-13T08:32:32.705Z,7.90
2023-01-13T08:34:59.403Z,9.00
2023-01-13T08:37:26.151Z,10.60
2023-01-13T08:39:52.857Z,7.00
2023-01-13T08:42:19.745Z,8.40
2023-01-13T08:44:46.536Z,8.20
2023-01-13T08:47:14.588Z,7.40
2023-01-13T08:49:41.386Z,7.10
2023-01-13T08:52:08.246Z,11.30
2023-01-13T08:54:35.183Z,8.90
2023-01-13T08:57:03.391Z,7.80
2023-01-13T08:59:30.336Z,9.80
2023-01-13T09:01:57.327Z,8.00
2023-01-13T09:04:27.619Z,8.10
2023-01-13T09:06:55.483Z,8.00
2023-01-13T09:09:23.940Z,8.80
2023-01-13T09:12:06.739Z,8.20
2023-01-13T09:14:36.484Z,7.90
2023-01-13T09:17:04.013Z,7.50
2023-01-13T09:19:30.817Z,6.80
2023-01-13T09:21:57.944Z,7.00
2023-01-13T09:24:25.542Z,8.50
2023-01-13T09:26:52.930Z,7.70
2023-01-13T09:29:20.585Z,5.60
2023-01-13T09:31:47.697Z,8.20
2023-01-13T09:34:32.789Z,7.80
2023-01-13T09:37:00.175Z,6.60
2023-01-13T09:39:26.958Z,9.80
2023-01-13T09:42:12.540Z,7.70
2023-01-13T09:44:58.580Z,6.70
2023-01-13T09:47:41.322Z,7.10
2023-01-13T09:50:15.530Z,3.80
2023-01-13T09:55:14.323Z,5.30
2023-01-13T09:57:41.233Z,7.50
2023-01-13T10:00:14.220Z,5.40
2023-01-13T10:02:52.617Z,5.20
2023-01-13T10:05:36.796Z,5.60
2023-01-13T10:08:11.560Z,5.10
2023-01-13T10:10:49.061Z,4.80
2023-01-13T10:13:22.324Z,5.90
2023-01-13T10:15:57.067Z,4.30
2023-01-13T10:18:59.684Z,4.40
2023-01-13T10:21:45.292Z,4.20
2023-01-13T10:24:25.484Z,6.80
2023-01-13T10:27:05.283Z,5.90
2023-01-13T10:29:32.750Z,3.20
2023-01-13T10:32:00.478Z,4.20
2023-01-13T10:34:28.589Z,6.50
2023-01-13T10:36:59.547Z,6.30
2023-01-13T10:39:26.483Z,6.30
2023-01-13T10:42:03.032Z,4.50
2023-01-13T10:44:30.062Z,5.20
2023-01-13T10:46:59.373Z,5.00
2023-01-13T10:49:32.978Z,3.80
2023-01-13T10:52:02.106Z,6.10
2023-01-13T10:54:29.909Z,4.40
2023-01-13T10:57:13.265Z,4.80
2023-01-13T10:59:39.996Z,6.70
2023-01-13T11:02:26.274Z,5.30
2023-01-13T11:04:53.740Z,4.50
2023-01-13T11:07:23.927Z,4.30
2023-01-13T11:10:10.701Z,5.00
2023-01-13T11:13:03.716Z,3.90
2023-01-13T11:15:43.367Z,5.60
2023-01-13T11:18:19.419Z,4.50
2023-01-13T11:20:49.557Z,3.00
2023-01-13T11:23:43.473Z,4.60
2023-01-13T11:26:29.816Z,6.00
2023-01-13T11:29:32.052Z,3.70
2023-01-13T11:32:10.577Z,3.60
2023-01-13T11:34:40.487Z,4.40
2023-01-13T11:37:20.546Z,4.40
2023-01-13T11:39:48.495Z,5.00
2023-01-13T11:42:27.881Z,3.10
2023-01-13T11:45:02.031Z,4.00
2023-01-13T11:47:29.396Z,3.90
2023-01-13T11:49:56.592Z,4.20
2023-01-13T11:52:30.750Z,4.80
2023-01-13T11:55:22.669Z,5.90
2023-01-13T11:58:05.365Z,4.50
2023-01-13T12:00:51.012Z,5.60
2023-01-13T12:03:38.434Z,4.70
2023-01-13T12:06:24.999Z,4.10
2023-01-13T12:09:11.914Z,7.90
2023-01-13T12:12:01.791Z,4.90
2023-01-13T12:14:49.365Z,5.00
2023-01-13T12:17:30.292Z,5.50
2023-01-13T12:19:57.270Z,5.20
2023-01-13T12:22:30.031Z,5.10
2023-01-13T12:25:07.247Z,5.20
2023-01-13T12:27:57.629Z,5.50
2023-01-13T12:30:29.708Z,4.70
2023-01-13T12:33:03.844Z,5.70
2023-01-13T12:38:19.460Z,5.70
2023-01-13T12:41:01.819Z,4.80
2023-01-13T12:43:45.643Z,5.80
2023-01-13T12:46:19.719Z,4.40
2023-01-13T12:51:22.321Z,7.20
2023-01-13T12:53:49.112Z,5.80
2023-01-13T12:56:31.481Z,6.70
2023-01-13T12:59:19.380Z,6.00
2023-01-13T13:01:49.346Z,7.60
2023-01-13T13:04:20.672Z,5.80
2023-01-13T13:07:07.749Z,6.30
2023-01-13T13:09:44.642Z,9.70
2023-01-13T13:12:57.465Z,9.30
2023-01-13T13:15:27.896Z,8.30
2023-01-13T13:18:08.663Z,8.30
2023-01-13T13:20:54.295Z,4.50
2023-01-13T13:23:29.461Z,4.70
2023-01-13T13:26:03.433Z,9.00
2023-01-13T13:28:38.152Z,8.10
2023-01-13T13:31:24.834Z,8.20
2023-01-13T13:34:00.585Z,8.00
2023-01-13T13:36:30.636Z,8.30
2023-01-13T13:39:32.316Z,7.00
2023-01-13T13:42:26.916Z,8.50
2023-01-13T13:45:10.187Z,7.30
2023-01-13T13:47:38.559Z,8.30
2023-01-13T13:50:11.985Z,5.90
2023-01-13T13:52:51.521Z,8.00
2023-01-13T13:55:22.132Z,7.70
2023-01-13T13:57:51.768Z,8.70
2023-01-13T14:00:27.476Z,8.30
2023-01-13T14:02:58.952Z,8.10
2023-01-13T14:05:29.891Z,7.00
2023-01-13T14:08:19.277Z,7.60
2023-01-13T14:10:46.668Z,8.60
2023-01-13T14:13:19.978Z,7.40
2023-01-13T14:15:49.421Z,7.60
2023-01-13T14:18:19.642Z,7.10
2023-01-13T14:20:58.324Z,7.80
2023-01-13T14:23:34.772Z,10.00
2023-01-13T14:26:08.718Z,7.40
2023-01-13T14:28:40.343Z,7.10
2023-01-13T14:31:09.491Z,7.30
2023-01-13T14:33:39.288Z,7.30
2023-01-13T14:36:13.749Z,7.20
2023-01-13T14:38:41.887Z,11.30
2023-01-13T14:41:11.589Z,9.30
2023-01-13T14:43:44.372Z,8.20
2023-01-13T14:46:11.897Z,6.40
2023-01-13T14:48:41.021Z,7.70
2023-01-13T14:51:11.581Z,7.70
2023-01-13T14:53:43.330Z,7.20
2023-01-13T14:56:40.879Z,8.50
2023-01-13T14:59:38.409Z,6.10
2023-01-13T15:02:36.223Z,8.00
2023-01-13T15:05:19.703Z,96.00
2023-01-13T15:08:04.676Z,23.10
2023-01-13T15:10:35.003Z,47.90
2023-01-13T15:13:05.104Z,19.20
2023-01-13T15:15:34.995Z,16.50
2023-01-13T15:18:08.103Z,11.20
2023-01-13T15:20:34.839Z,18.80
2023-01-13T15:23:01.563Z,11.70
2023-01-13T15:25:32.922Z,19.40
2023-01-13T15:27:59.737Z,15.00
2023-01-13T15:30:27.468Z,10.90
2023-01-13T15:32:56.911Z,10.70
2023-01-13T15:35:26.855Z,17.80
2023-01-13T15:37:56.135Z,92.00
2023-01-13T15:40:29.999Z,180.40
2023-01-13T15:43:12.660Z,245.20
2023-01-13T15:45:56.045Z,33.70
2023-01-13T15:48:25.757Z,148.70
2023-01-13T15:50:52.466Z,79.10
2023-01-13T15:53:20.105Z,41.90
2023-01-13T15:55:52.292Z,66.30
2023-01-13T15:58:21.521Z,67.20
2023-01-13T16:00:48.316Z,24.40
2023-01-13T16:03:16.096Z,24.40
2023-01-13T16:05:44.606Z,13.80
2023-01-13T16:08:15.675Z,12.50
2023-01-13T16:10:43.514Z,15.80
2023-01-13T16:13:11.188Z,21.10
2023-01-13T16:15:43.421Z,16.60
2023-01-13T16:18:17.245Z,17.10
2023-01-13T16:20:44.273Z,14.70
2023-01-13T16:23:12.280Z,13.20
2023-01-13T16:25:40.562Z,9.60
2023-01-13T16:28:07.354Z,11.30
2023-01-13T16:30:37.018Z,8.40
2023-01-13T16:33:04.133Z,8.60
2023-01-13T16:35:32.352Z,7.80
2023-01-13T16:37:59.950Z,10.20
2023-01-13T16:40:31.329Z,7.20
2023-01-13T16:42:58.291Z,8.10
2023-01-13T16:45:25.231Z,7.10
2023-01-13T16:47:52.467Z,8.50
2023-01-13T16:50:23.538Z,8.80
2023-01-13T16:52:50.298Z,6.10
2023-01-13T16:55:16.994Z,38.90
2023-01-13T16:57:43.794Z,33.10
2023-01-13T17:00:12.612Z,52.40
2023-01-13T17:02:39.308Z,8.50
2023-01-13T17:05:06.894Z,12.30
2023-01-13T17:07:33.734Z,24.70
2023-01-13T17:10:00.556Z,33.50
2023-01-13T17:12:27.287Z,44.20
2023-01-13T17:14:54.015Z,56.40
2023-01-13T17:17:23.298Z,30.80
2023-01-13T17:19:50.700Z,68.30
2023-01-13T17:22:18.373Z,36.00
2023-01-13T17:25:00.838Z,89.60
2023-01-13T17:27:27.642Z,79.50
2023-01-13T17:29:54.807Z,138.30
2023-01-13T17:32:23.068Z,96.60
2023-01-13T17:34:51.012Z,35.90
2023-01-13T17:37:18.114Z,36.70
2023-01-13T17:39:46.528Z,42.60
2023-01-13T17:42:14.084Z,31.60
2023-01-13T17:44:41.172Z,17.00
2023-01-13T17:47:08.804Z,83.70
2023-01-13T17:49:35.635Z,78.70
2023-01-13T17:52:02.439Z,79.30
2023-01-13T17:54:29.251Z,127.00
2023-01-13T17:56:56.619Z,317.70
2023-01-13T17:59:24.494Z,73.00
2023-01-13T18:01:52.434Z,212.90
2023-01-13T18:04:23.596Z,173.70
2023-01-13T18:06:50.583Z,99.60
2023-01-13T18:09:17.954Z,64.30
2023-01-13T18:11:46.526Z,211.00
2023-01-13T18:14:13.970Z,244.90
2023-01-13T18:16:40.843Z,115.00
2023-01-13T18:19:23.269Z,156.00
2023-01-13T18:22:05.857Z,35.60
2023-01-13T18:24:48.409Z,55.70
2023-01-13T18:27:22.490Z,57.30
2023-01-13T18:29:51.730Z,115.00
2023-01-13T18:32:19.655Z,69.60
2023-01-13T18:34:47.939Z,155.20
2023-01-13T18:37:16.852Z,235.60
2023-01-13T18:39:44.611Z,23.30
2023-01-13T18:42:27.282Z,41.60
2023-01-13T18:44:57.025Z,13.50
2023-01-13T18:47:25.187Z,16.40
2023-01-13T18:49:52.772Z,13.30
2023-01-13T18:52:19.664Z,9.90
2023-01-13T18:54:46.418Z,9.50
2023-01-13T18:57:13.966Z,13.80
2023-01-13T18:59:57.643Z,46.40
2023-01-13T19:02:26.722Z,19.10
2023-01-13T19:04:53.976Z,22.30
2023-01-13T19:07:27.045Z,11.60
2023-01-13T19:09:55.917Z,42.00
2023-01-13T19:12:26.367Z,16.00
2023-01-13T19:14:54.765Z,12.20
2023-01-13T19:17:23.002Z,38.20
2023-01-13T19:19:52.761Z,35.50
2023-01-13T19:22:23.509Z,22.60
2023-01-13T19:24:50.664Z,13.40
2023-01-13T19:27:18.863Z,10.70
2023-01-13T19:29:52.125Z,15.90
2023-01-13T19:32:21.955Z,13.80
2023-01-13T19:34:51.247Z,22.20
2023-01-13T19:37:19.263Z,135.30
2023-01-13T19:39:46.149Z,485.70
2023-01-13T19:42:28.716Z,167.60
2023-01-13T19:45:11.281Z,86.60
2023-01-13T19:47:38.915Z,27.20
2023-01-13T19:50:08.032Z,72.40
2023-01-13T19:52:34.952Z,49.50
2023-01-13T19:55:17.655Z,18.60
2023-01-13T19:57:44.488Z,25.50
2023-01-13T20:00:26.704Z,14.10
2023-01-13T20:02:56.219Z,56.20
2023-01-13T20:05:25.880Z,28.40
2023-01-13T20:07:53.398Z,25.90
2023-01-13T20:10:22.403Z,45.50
2023-01-13T20:12:49.191Z,189.40
2023-01-13T20:15:16.331Z,62.80
2023-01-13T20:17:43.089Z,15.00
2023-01-13T20:20:10.812Z,14.70
2023-01-13T20:22:39.853Z,28.80
2023-01-13T20:25:07.708Z,14.10
2023-01-13T20:27:35.065Z,22.30
2023-01-13T20:30:02.097Z,185.50
2023-01-13T20:32:28.989Z,23.70
2023-01-13T20:35:11.932Z,105.70
2023-01-13T20:37:40.351Z,54.00
2023-01-13T20:40:08.728Z,92.00
2023-01-13T20:42:45.076Z,125.50
2023-01-13T20:45:17.814Z,166.30
2023-01-13T20:47:45.628Z,108.80
2023-01-13T20:50:13.150Z,86.80
2023-01-13T20:52:40.242Z,35.70
2023-01-13T20:55:10.327Z,102.40
2023-01-13T20:57:37.105Z,64.00
2023-01-13T21:00:05.463Z,75.30
2023-01-13T21:02:32.488Z,219.20
2023-01-13T21:04:59.303Z,77.50
2023-01-13T21:07:26.023Z,111.90
2023-01-13T21:09:52.799Z,149.90
2023-01-13T21:12:34.872Z,106.30
2023-01-13T21:15:17.827Z,59.00
2023-01-13T21:18:01.063Z,53.60
2023-01-13T21:20:30.671Z,156.70
2023-01-13T21:22:57.509Z,146.20
2023-01-13T21:25:24.623Z,34.30
2023-01-13T21:27:53.686Z,143.00
2023-01-13T21:30:20.615Z,53.80
2023-01-13T21:32:47.537Z,85.10
2023-01-13T21:35:15.190Z,77.00
2023-01-13T21:37:43.783Z,13.70
2023-01-13T21:40:15.684Z,96.40
2023-01-13T21:42:58.120Z,45.40
2023-01-13T21:45:40.364Z,14.90
2023-01-13T21:48:07.275Z,16.90
2023-01-13T21:50:34.407Z,83.40
2023-01-13T21:53:01.360Z,18.50
2023-01-13T21:55:28.837Z,93.80
2023-01-13T21:57:59.633Z,50.10
2023-01-13T22:00:29.829Z,22.20
2023-01-13T22:02:58.425Z,15.60
2023-01-13T22:05:26.238Z,170.70
2023-01-13T22:07:53.607Z,56.50
2023-01-13T22:10:22.972Z,86.90
2023-01-13T22:12:54.048Z,61.80
2023-01-13T22:15:22.312Z,18.20
2023-01-13T22:17:52.305Z,17.80
2023-01-13T22:20:20.006Z,20.80
2023-01-13T22:22:47.295Z,45.80
2023-01-13T22:25:16.655Z,13.30
2023-01-13T22:27:44.800Z,40.30
2023-01-13T22:30:15.880Z,16.60
2023-01-13T22:32:42.623Z,22.60
2023-01-13T22:35:11.547Z,42.30
2023-01-13T22:37:39.020Z,19.30
2023-01-13T22:40:07.713Z,31.60
2023-01-13T22:42:40.602Z,80.60
2023-01-13T22:45:11.196Z,16.80
2023-01-13T22:47:38.145Z,44.60
2023-01-13T22:50:05.988Z,33.50
2023-01-13T22:52:35.102Z,19.30
2023-01-13T22:55:02.018Z,12.60
2023-01-13T22:57:35.995Z,12.40
2023-01-13T23:00:10.757Z,15.50
2023-01-13T23:02:38.660Z,12.10
2023-01-13T23:05:05.997Z,12.40
2023-01-13T23:07:32.711Z,35.50
2023-01-13T23:09:59.965Z,75.80
2023-01-13T23:12:26.816Z,28.50
2023-01-13T23:14:54.691Z,18.80
2023-01-13T23:17:21.395Z,22.60
2023-01-13T23:19:48.136Z,18.20
2023-01-13T23:22:15.666Z,14.80
2023-01-13T23:24:42.358Z,24.70
2023-01-13T23:27:09.110Z,19.50
2023-01-13T23:29:35.957Z,27.00
2023-01-13T23:32:02.872Z,16.40
2023-01-13T23:34:29.628Z,15.10
2023-01-13T23:36:56.473Z,17.40
2023-01-13T23:39:24.561Z,17.10
2023-01-13T23:41:51.287Z,13.40
2023-01-13T23:44:18.086Z,9.90
2023-01-13T23:46:44.831Z,14.30
2023-01-13T23:49:11.583Z,13.50
2023-01-13T23:51:38.326Z,12.10
2023-01-13T23:54:05.265Z,11.90
2023-01-13T23:56:32.147Z,13.10
2023-01-13T23:58:59.152Z,10.50
